sensor_id;sensor_type;location;lat;lon;timestamp;P1;durP1;ratioP1;P2;durP2;ratioP2
20008;SDS011;10165;42.662;23.260;2023-07-24T00:01:21;10.97;;;6.07;;
20008;SDS011;10165;42.662;23.260;2023-07-24T00:03:48;13.60;;;6.10;;
20008;SDS011;10165;42.662;23.260;2023-07-24T00:06:15;10.50;;;6.47;;
20008;SDS011;10165;42.662;23.260;2023-07-24T00:08:42;12.83;;;6.70;;
20008;SDS011;10165;42.662;23.260;2023-07-24T00:11:08;10.10;;;6.10;;
20008;SDS011;10165;42.662;23.260;2023-07-24T00:13:35;11.10;;;6.13;;
20008;SDS011;10165;42.662;23.260;2023-07-24T00:16:11;13.77;;;6.77;;
20008;SDS011;10165;42.662;23.260;2023-07-24T00:18:37;10.33;;;6.17;;
20008;SDS011;10165;42.662;23.260;2023-07-24T00:21:04;13.60;;;7.07;;
20008;SDS011;10165;42.662;23.260;2023-07-24T00:23:31;11.00;;;6.63;;
20008;SDS011;10165;42.662;23.260;2023-07-24T00:26:00;11.33;;;6.40;;
20008;SDS011;10165;42.662;23.260;2023-07-24T00:28:27;10.93;;;5.73;;
20008;SDS011;10165;42.662;23.260;2023-07-24T00:30:53;12.60;;;7.37;;
20008;SDS011;10165;42.662;23.260;2023-07-24T00:33:22;13.67;;;7.37;;
20008;SDS011;10165;42.662;23.260;2023-07-24T00:35:50;10.70;;;6.23;;
20008;SDS011;10165;42.662;23.260;2023-07-24T00:38:16;11.77;;;6.73;;
20008;SDS011;10165;42.662;23.260;2023-07-24T00:40:43;11.27;;;6.73;;
20008;SDS011;10165;42.662;23.260;2023-07-24T00:43:10;10.00;;;5.63;;
20008;SDS011;10165;42.662;23.260;2023-07-24T00:45:37;12.70;;;6.90;;
20008;SDS011;10165;42.662;23.260;2023-07-24T00:48:06;12.00;;;6.57;;
20008;SDS011;10165;42.662;23.260;2023-07-24T00:50:33;10.13;;;5.60;;
20008;SDS011;10165;42.662;23.260;2023-07-24T00:53:01;11.20;;;6.60;;
20008;SDS011;10165;42.662;23.260;2023-07-24T00:55:28;12.33;;;6.23;;
20008;SDS011;10165;42.662;23.260;2023-07-24T00:57:56;11.00;;;6.63;;
20008;SDS011;10165;42.662;23.260;2023-07-24T01:00:24;11.40;;;6.57;;
20008;SDS011;10165;42.662;23.260;2023-07-24T01:02:51;10.27;;;6.20;;
20008;SDS011;10165;42.662;23.260;2023-07-24T01:05:18;13.33;;;6.80;;
20008;SDS011;10165;42.662;23.260;2023-07-24T01:07:46;13.37;;;6.40;;
20008;SDS011;10165;42.662;23.260;2023-07-24T01:10:13;11.30;;;6.47;;
20008;SDS011;10165;42.662;23.260;2023-07-24T01:15:37;11.70;;;6.47;;
20008;SDS011;10165;42.662;23.260;2023-07-24T01:18:09;12.77;;;6.57;;
20008;SDS011;10165;42.662;23.260;2023-07-24T01:20:40;11.13;;;6.47;;
20008;SDS011;10165;42.662;23.260;2023-07-24T01:25:56;13.97;;;7.30;;
20008;SDS011;10165;42.662;23.260;2023-07-24T01:28:28;12.27;;;6.87;;
20008;SDS011;10165;42.662;23.260;2023-07-24T01:30:55;10.70;;;6.20;;
20008;SDS011;10165;42.662;23.260;2023-07-24T01:33:23;12.17;;;6.53;;
20008;SDS011;10165;42.662;23.260;2023-07-24T01:35:53;12.20;;;6.63;;
20008;SDS011;10165;42.662;23.260;2023-07-24T01:38:22;12.27;;;6.90;;
20008;SDS011;10165;42.662;23.260;2023-07-24T01:40:55;11.13;;;6.33;;
20008;SDS011;10165;42.662;23.260;2023-07-24T01:43:24;13.10;;;7.13;;
20008;SDS011;10165;42.662;23.260;2023-07-24T01:45:53;13.30;;;7.10;;
20008;SDS011;10165;42.662;23.260;2023-07-24T01:48:20;13.57;;;7.30;;
20008;SDS011;10165;42.662;23.260;2023-07-24T01:50:47;14.80;;;7.23;;
20008;SDS011;10165;42.662;23.260;2023-07-24T01:53:14;12.63;;;7.03;;
20008;SDS011;10165;42.662;23.260;2023-07-24T01:55:40;15.43;;;7.73;;
20008;SDS011;10165;42.662;23.260;2023-07-24T01:58:07;13.17;;;6.90;;
20008;SDS011;10165;42.662;23.260;2023-07-24T02:00:34;12.20;;;6.73;;
20008;SDS011;10165;42.662;23.260;2023-07-24T02:03:00;12.17;;;6.63;;
20008;SDS011;10165;42.662;23.260;2023-07-24T02:05:27;11.53;;;6.30;;
20008;SDS011;10165;42.662;23.260;2023-07-24T02:07:54;10.20;;;7.10;;
20008;SDS011;10165;42.662;23.260;2023-07-24T02:10:21;13.40;;;7.23;;
20008;SDS011;10165;42.662;23.260;2023-07-24T02:12:49;14.97;;;7.57;;
20008;SDS011;10165;42.662;23.260;2023-07-24T02:15:15;12.20;;;6.70;;
20008;SDS011;10165;42.662;23.260;2023-07-24T02:17:44;13.33;;;6.83;;
20008;SDS011;10165;42.662;23.260;2023-07-24T02:20:11;10.93;;;6.50;;
20008;SDS011;10165;42.662;23.260;2023-07-24T02:22:38;13.73;;;6.63;;
20008;SDS011;10165;42.662;23.260;2023-07-24T02:25:04;12.10;;;6.50;;
20008;SDS011;10165;42.662;23.260;2023-07-24T02:27:32;13.90;;;7.37;;
20008;SDS011;10165;42.662;23.260;2023-07-24T02:30:01;14.50;;;7.07;;
20008;SDS011;10165;42.662;23.260;2023-07-24T02:32:28;12.23;;;6.70;;
20008;SDS011;10165;42.662;23.260;2023-07-24T02:34:58;12.40;;;6.67;;
20008;SDS011;10165;42.662;23.260;2023-07-24T02:37:28;13.50;;;7.53;;
20008;SDS011;10165;42.662;23.260;2023-07-24T02:39:54;15.30;;;8.37;;
20008;SDS011;10165;42.662;23.260;2023-07-24T02:42:23;15.10;;;7.30;;
20008;SDS011;10165;42.662;23.260;2023-07-24T02:44:50;14.40;;;7.27;;
20008;SDS011;10165;42.662;23.260;2023-07-24T02:47:19;17.80;;;7.30;;
20008;SDS011;10165;42.662;23.260;2023-07-24T02:49:45;16.23;;;7.57;;
20008;SDS011;10165;42.662;23.260;2023-07-24T02:52:12;13.97;;;7.73;;
20008;SDS011;10165;42.662;23.260;2023-07-24T02:54:39;14.70;;;6.87;;
20008;SDS011;10165;42.662;23.260;2023-07-24T02:57:06;13.47;;;6.50;;
20008;SDS011;10165;42.662;23.260;2023-07-24T02:59:32;14.67;;;6.77;;
20008;SDS011;10165;42.662;23.260;2023-07-24T03:02:01;14.73;;;7.30;;
20008;SDS011;10165;42.662;23.260;2023-07-24T03:04:27;14.00;;;7.30;;
20008;SDS011;10165;42.662;23.260;2023-07-24T03:06:54;12.13;;;7.27;;
20008;SDS011;10165;42.662;23.260;2023-07-24T03:09:21;13.23;;;7.27;;
20008;SDS011;10165;42.662;23.260;2023-07-24T03:11:47;13.17;;;7.13;;
20008;SDS011;10165;42.662;23.260;2023-07-24T03:14:14;10.70;;;6.77;;
20008;SDS011;10165;42.662;23.260;2023-07-24T03:16:41;14.90;;;7.23;;
20008;SDS011;10165;42.662;23.260;2023-07-24T03:19:08;15.40;;;7.17;;
20008;SDS011;10165;42.662;23.260;2023-07-24T03:21:34;12.40;;;7.30;;
20008;SDS011;10165;42.662;23.260;2023-07-24T03:24:01;18.37;;;7.40;;
20008;SDS011;10165;42.662;23.260;2023-07-24T03:26:28;19.50;;;8.00;;
20008;SDS011;10165;42.662;23.260;2023-07-24T03:28:55;13.67;;;7.57;;
20008;SDS011;10165;42.662;23.260;2023-07-24T03:31:22;17.20;;;7.43;;
20008;SDS011;10165;42.662;23.260;2023-07-24T03:33:49;15.10;;;7.97;;
20008;SDS011;10165;42.662;23.260;2023-07-24T03:36:15;14.10;;;7.77;;
20008;SDS011;10165;42.662;23.260;2023-07-24T03:38:43;18.17;;;7.73;;
20008;SDS011;10165;42.662;23.260;2023-07-24T03:41:10;16.40;;;7.53;;
20008;SDS011;10165;42.662;23.260;2023-07-24T03:43:37;13.17;;;7.67;;
20008;SDS011;10165;42.662;23.260;2023-07-24T03:46:06;12.97;;;7.87;;
20008;SDS011;10165;42.662;23.260;2023-07-24T03:48:32;14.30;;;8.03;;
20008;SDS011;10165;42.662;23.260;2023-07-24T03:51:01;15.60;;;7.60;;
20008;SDS011;10165;42.662;23.260;2023-07-24T03:53:30;17.27;;;8.00;;
20008;SDS011;10165;42.662;23.260;2023-07-24T03:55:58;15.87;;;7.63;;
20008;SDS011;10165;42.662;23.260;2023-07-24T03:58:28;17.53;;;8.07;;
20008;SDS011;10165;42.662;23.260;2023-07-24T04:00:54;23.13;;;8.60;;
20008;SDS011;10165;42.662;23.260;2023-07-24T04:03:24;16.53;;;7.80;;
20008;SDS011;10165;42.662;23.260;2023-07-24T04:05:51;19.73;;;8.97;;
20008;SDS011;10165;42.662;23.260;2023-07-24T04:08:18;19.60;;;8.60;;
20008;SDS011;10165;42.662;23.260;2023-07-24T04:10:44;17.70;;;9.17;;
20008;SDS011;10165;42.662;23.260;2023-07-24T04:13:11;19.80;;;8.37;;
20008;SDS011;10165;42.662;23.260;2023-07-24T04:15:38;15.73;;;8.13;;
20008;SDS011;10165;42.662;23.260;2023-07-24T04:18:05;18.37;;;8.83;;
20008;SDS011;10165;42.662;23.260;2023-07-24T04:20:32;13.20;;;7.80;;
20008;SDS011;10165;42.662;23.260;2023-07-24T04:22:59;13.33;;;7.63;;
20008;SDS011;10165;42.662;23.260;2023-07-24T04:25:26;12.50;;;6.83;;
20008;SDS011;10165;42.662;23.260;2023-07-24T04:27:53;17.70;;;8.43;;
20008;SDS011;10165;42.662;23.260;2023-07-24T04:30:20;12.17;;;7.20;;
20008;SDS011;10165;42.662;23.260;2023-07-24T04:32:47;13.70;;;7.07;;
20008;SDS011;10165;42.662;23.260;2023-07-24T04:35:14;13.50;;;7.30;;
20008;SDS011;10165;42.662;23.260;2023-07-24T04:37:43;14.67;;;7.50;;
20008;SDS011;10165;42.662;23.260;2023-07-24T04:40:10;11.60;;;7.20;;
20008;SDS011;10165;42.662;23.260;2023-07-24T04:42:37;14.00;;;8.17;;
20008;SDS011;10165;42.662;23.260;2023-07-24T04:45:04;12.97;;;7.53;;
20008;SDS011;10165;42.662;23.260;2023-07-24T04:47:32;13.23;;;8.20;;
20008;SDS011;10165;42.662;23.260;2023-07-24T04:49:59;13.97;;;7.70;;
20008;SDS011;10165;42.662;23.260;2023-07-24T04:52:26;18.83;;;8.20;;
20008;SDS011;10165;42.662;23.260;2023-07-24T04:54:52;22.07;;;8.30;;
20008;SDS011;10165;42.662;23.260;2023-07-24T04:57:19;16.17;;;8.00;;
20008;SDS011;10165;42.662;23.260;2023-07-24T04:59:46;18.93;;;8.33;;
20008;SDS011;10165;42.662;23.260;2023-07-24T05:02:14;17.17;;;8.43;;
20008;SDS011;10165;42.662;23.260;2023-07-24T05:04:41;12.67;;;8.33;;
20008;SDS011;10165;42.662;23.260;2023-07-24T05:07:08;14.60;;;8.23;;
20008;SDS011;10165;42.662;23.260;2023-07-24T05:09:37;16.07;;;8.43;;
20008;SDS011;10165;42.662;23.260;2023-07-24T05:12:04;13.40;;;8.40;;
20008;SDS011;10165;42.662;23.260;2023-07-24T05:14:33;16.47;;;8.23;;
20008;SDS011;10165;42.662;23.260;2023-07-24T05:17:00;17.77;;;8.93;;
20008;SDS011;10165;42.662;23.260;2023-07-24T05:19:27;16.17;;;9.00;;
20008;SDS011;10165;42.662;23.260;2023-07-24T05:21:54;14.83;;;8.57;;
20008;SDS011;10165;42.662;23.260;2023-07-24T05:24:20;25.93;;;9.13;;
20008;SDS011;10165;42.662;23.260;2023-07-24T05:26:47;17.57;;;8.20;;
20008;SDS011;10165;42.662;23.260;2023-07-24T05:29:14;19.93;;;9.60;;
20008;SDS011;10165;42.662;23.260;2023-07-24T05:31:40;17.87;;;9.13;;
20008;SDS011;10165;42.662;23.260;2023-07-24T05:34:07;15.00;;;8.30;;
20008;SDS011;10165;42.662;23.260;2023-07-24T05:36:34;14.30;;;8.17;;
20008;SDS011;10165;42.662;23.260;2023-07-24T05:39:00;19.77;;;9.13;;
20008;SDS011;10165;42.662;23.260;2023-07-24T05:41:27;14.87;;;8.53;;
20008;SDS011;10165;42.662;23.260;2023-07-24T05:43:54;15.37;;;8.53;;
20008;SDS011;10165;42.662;23.260;2023-07-24T05:46:21;13.57;;;7.97;;
20008;SDS011;10165;42.662;23.260;2023-07-24T05:48:49;15.57;;;8.77;;
20008;SDS011;10165;42.662;23.260;2023-07-24T05:51:15;14.07;;;8.13;;
20008;SDS011;10165;42.662;23.260;2023-07-24T05:53:42;15.53;;;9.27;;
20008;SDS011;10165;42.662;23.260;2023-07-24T05:56:09;15.70;;;8.70;;
20008;SDS011;10165;42.662;23.260;2023-07-24T05:58:35;12.73;;;8.50;;
20008;SDS011;10165;42.662;23.260;2023-07-24T06:01:02;12.90;;;8.13;;
20008;SDS011;10165;42.662;23.260;2023-07-24T06:03:29;13.13;;;8.10;;
20008;SDS011;10165;42.662;23.260;2023-07-24T06:05:58;16.93;;;8.77;;
20008;SDS011;10165;42.662;23.260;2023-07-24T06:08:28;14.67;;;8.47;;
20008;SDS011;10165;42.662;23.260;2023-07-24T06:10:58;15.23;;;8.13;;
20008;SDS011;10165;42.662;23.260;2023-07-24T06:13:25;16.13;;;8.53;;
20008;SDS011;10165;42.662;23.260;2023-07-24T06:15:51;16.53;;;8.33;;
20008;SDS011;10165;42.662;23.260;2023-07-24T06:18:18;14.93;;;8.73;;
20008;SDS011;10165;42.662;23.260;2023-07-24T06:20:45;16.90;;;8.60;;
20008;SDS011;10165;42.662;23.260;2023-07-24T06:23:12;17.60;;;8.83;;
20008;SDS011;10165;42.662;23.260;2023-07-24T06:25:38;16.90;;;9.63;;
20008;SDS011;10165;42.662;23.260;2023-07-24T06:28:05;16.73;;;8.90;;
20008;SDS011;10165;42.662;23.260;2023-07-24T06:30:32;12.40;;;7.60;;
20008;SDS011;10165;42.662;23.260;2023-07-24T06:32:59;20.27;;;10.33;;
20008;SDS011;10165;42.662;23.260;2023-07-24T06:35:25;16.90;;;8.87;;
20008;SDS011;10165;42.662;23.260;2023-07-24T06:37:52;16.07;;;8.17;;
20008;SDS011;10165;42.662;23.260;2023-07-24T06:40:19;14.13;;;8.10;;
20008;SDS011;10165;42.662;23.260;2023-07-24T06:42:46;16.10;;;9.33;;
20008;SDS011;10165;42.662;23.260;2023-07-24T06:45:12;16.37;;;8.50;;
20008;SDS011;10165;42.662;23.260;2023-07-24T06:47:39;15.83;;;8.97;;
20008;SDS011;10165;42.662;23.260;2023-07-24T06:50:06;16.90;;;8.80;;
20008;SDS011;10165;42.662;23.260;2023-07-24T06:52:34;14.60;;;8.63;;
20008;SDS011;10165;42.662;23.260;2023-07-24T06:55:00;17.47;;;9.30;;
20008;SDS011;10165;42.662;23.260;2023-07-24T06:57:27;15.03;;;8.27;;
20008;SDS011;10165;42.662;23.260;2023-07-24T06:59:54;15.03;;;8.80;;
20008;SDS011;10165;42.662;23.260;2023-07-24T07:02:21;15.83;;;8.93;;
20008;SDS011;10165;42.662;23.260;2023-07-24T07:04:47;14.73;;;8.93;;
20008;SDS011;10165;42.662;23.260;2023-07-24T07:07:14;22.00;;;8.90;;
20008;SDS011;10165;42.662;23.260;2023-07-24T07:09:41;17.10;;;8.77;;
20008;SDS011;10165;42.662;23.260;2023-07-24T07:12:08;17.40;;;8.80;;
20008;SDS011;10165;42.662;23.260;2023-07-24T07:14:37;25.63;;;9.33;;
20008;SDS011;10165;42.662;23.260;2023-07-24T07:17:04;16.30;;;8.67;;
20008;SDS011;10165;42.662;23.260;2023-07-24T07:19:30;15.60;;;8.40;;
20008;SDS011;10165;42.662;23.260;2023-07-24T07:22:02;13.53;;;8.67;;
20008;SDS011;10165;42.662;23.260;2023-07-24T07:24:31;16.77;;;9.07;;
20008;SDS011;10165;42.662;23.260;2023-07-24T07:26:58;17.87;;;8.93;;
20008;SDS011;10165;42.662;23.260;2023-07-24T07:29:27;14.50;;;9.07;;
20008;SDS011;10165;42.662;23.260;2023-07-24T07:31:54;17.37;;;8.73;;
20008;SDS011;10165;42.662;23.260;2023-07-24T07:34:24;17.37;;;8.00;;
20008;SDS011;10165;42.662;23.260;2023-07-24T07:36:51;18.23;;;8.27;;
20008;SDS011;10165;42.662;23.260;2023-07-24T07:39:17;13.87;;;9.07;;
20008;SDS011;10165;42.662;23.260;2023-07-24T07:41:44;14.80;;;8.57;;
20008;SDS011;10165;42.662;23.260;2023-07-24T07:44:13;15.97;;;8.60;;
20008;SDS011;10165;42.662;23.260;2023-07-24T07:46:43;15.93;;;8.87;;
20008;SDS011;10165;42.662;23.260;2023-07-24T07:49:09;25.47;;;9.00;;
20008;SDS011;10165;42.662;23.260;2023-07-24T07:51:36;13.53;;;8.30;;
20008;SDS011;10165;42.662;23.260;2023-07-24T07:54:03;13.30;;;8.67;;
20008;SDS011;10165;42.662;23.260;2023-07-24T07:56:29;16.07;;;9.67;;
20008;SDS011;10165;42.662;23.260;2023-07-24T07:58:57;16.57;;;8.60;;
20008;SDS011;10165;42.662;23.260;2023-07-24T08:01:23;14.13;;;8.63;;
20008;SDS011;10165;42.662;23.260;2023-07-24T08:03:50;18.47;;;8.73;;
20008;SDS011;10165;42.662;23.260;2023-07-24T08:06:17;16.70;;;8.43;;
20008;SDS011;10165;42.662;23.260;2023-07-24T08:08:44;15.43;;;9.07;;
20008;SDS011;10165;42.662;23.260;2023-07-24T08:11:10;15.50;;;8.57;;
20008;SDS011;10165;42.662;23.260;2023-07-24T08:13:37;17.53;;;8.50;;
20008;SDS011;10165;42.662;23.260;2023-07-24T08:16:12;15.57;;;8.23;;
20008;SDS011;10165;42.662;23.260;2023-07-24T08:18:47;12.10;;;8.00;;
20008;SDS011;10165;42.662;23.260;2023-07-24T08:21:14;16.97;;;8.77;;
20008;SDS011;10165;42.662;23.260;2023-07-24T08:23:41;11.60;;;7.97;;
20008;SDS011;10165;42.662;23.260;2023-07-24T08:26:08;17.73;;;8.57;;
20008;SDS011;10165;42.662;23.260;2023-07-24T08:28:35;14.70;;;9.30;;
20008;SDS011;10165;42.662;23.260;2023-07-24T08:31:02;18.43;;;8.67;;
20008;SDS011;10165;42.662;23.260;2023-07-24T08:33:32;18.53;;;8.63;;
20008;SDS011;10165;42.662;23.260;2023-07-24T08:36:00;19.50;;;8.30;;
20008;SDS011;10165;42.662;23.260;2023-07-24T08:38:31;15.30;;;8.50;;
20008;SDS011;10165;42.662;23.260;2023-07-24T08:41:05;14.93;;;7.83;;
20008;SDS011;10165;42.662;23.260;2023-07-24T08:43:34;14.93;;;8.40;;
20008;SDS011;10165;42.662;23.260;2023-07-24T08:46:02;14.57;;;7.97;;
20008;SDS011;10165;42.662;23.260;2023-07-24T08:48:30;15.53;;;8.40;;
20008;SDS011;10165;42.662;23.260;2023-07-24T08:51:02;17.75;;;8.52;;
20008;SDS011;10165;42.662;23.260;2023-07-24T08:53:34;13.70;;;9.07;;
20008;SDS011;10165;42.662;23.260;2023-07-24T08:56:06;16.35;;;8.65;;
20008;SDS011;10165;42.662;23.260;2023-07-24T08:58:43;16.60;;;8.20;;
20008;SDS011;10165;42.662;23.260;2023-07-24T09:01:10;15.23;;;8.85;;
20008;SDS011;10165;42.662;23.260;2023-07-24T09:03:37;13.90;;;8.82;;
20008;SDS011;10165;42.662;23.260;2023-07-24T09:06:04;15.65;;;7.80;;
20008;SDS011;10165;42.662;23.260;2023-07-24T09:08:34;15.43;;;8.70;;
20008;SDS011;10165;42.662;23.260;2023-07-24T09:11:03;13.95;;;8.05;;
20008;SDS011;10165;42.662;23.260;2023-07-24T09:13:30;15.07;;;8.50;;
20008;SDS011;10165;42.662;23.260;2023-07-24T09:15:58;16.65;;;8.02;;
20008;SDS011;10165;42.662;23.260;2023-07-24T09:18:37;16.08;;;8.13;;
20008;SDS011;10165;42.662;23.260;2023-07-24T09:21:08;11.48;;;7.90;;
20008;SDS011;10165;42.662;23.260;2023-07-24T09:23:36;15.40;;;8.95;;
20008;SDS011;10165;42.662;23.260;2023-07-24T09:26:06;16.30;;;8.00;;
20008;SDS011;10165;42.662;23.260;2023-07-24T09:28:34;19.05;;;8.35;;
20008;SDS011;10165;42.662;23.260;2023-07-24T09:31:01;14.15;;;8.13;;
20008;SDS011;10165;42.662;23.260;2023-07-24T09:33:35;15.30;;;8.50;;
20008;SDS011;10165;42.662;23.260;2023-07-24T09:36:06;17.30;;;8.57;;
20008;SDS011;10165;42.662;23.260;2023-07-24T09:38:35;16.90;;;8.20;;
20008;SDS011;10165;42.662;23.260;2023-07-24T09:41:05;18.08;;;8.05;;
20008;SDS011;10165;42.662;23.260;2023-07-24T09:43:33;13.15;;;7.90;;
20008;SDS011;10165;42.662;23.260;2023-07-24T09:46:06;15.55;;;8.48;;
20008;SDS011;10165;42.662;23.260;2023-07-24T09:48:35;12.77;;;7.40;;
20008;SDS011;10165;42.662;23.260;2023-07-24T09:51:05;14.45;;;8.73;;
20008;SDS011;10165;42.662;23.260;2023-07-24T09:53:44;16.85;;;7.70;;
20008;SDS011;10165;42.662;23.260;2023-07-24T09:56:17;16.20;;;7.22;;
20008;SDS011;10165;42.662;23.260;2023-07-24T09:58:46;12.13;;;7.03;;
20008;SDS011;10165;42.662;23.260;2023-07-24T10:01:15;14.52;;;8.25;;
20008;SDS011;10165;42.662;23.260;2023-07-24T10:03:47;14.50;;;7.22;;
20008;SDS011;10165;42.662;23.260;2023-07-24T10:06:14;16.13;;;6.60;;
20008;SDS011;10165;42.662;23.260;2023-07-24T10:08:42;13.52;;;6.45;;
20008;SDS011;10165;42.662;23.260;2023-07-24T10:11:11;13.50;;;7.13;;
20008;SDS011;10165;42.662;23.260;2023-07-24T10:13:38;14.40;;;6.93;;
20008;SDS011;10165;42.662;23.260;2023-07-24T10:16:06;14.40;;;6.57;;
20008;SDS011;10165;42.662;23.260;2023-07-24T10:18:34;12.80;;;6.30;;
20008;SDS011;10165;42.662;23.260;2023-07-24T10:21:08;12.30;;;6.22;;
20008;SDS011;10165;42.662;23.260;2023-07-24T10:23:37;15.65;;;7.25;;
20008;SDS011;10165;42.662;23.260;2023-07-24T10:26:07;14.10;;;6.15;;
20008;SDS011;10165;42.662;23.260;2023-07-24T10:28:35;17.52;;;7.22;;
20008;SDS011;10165;42.662;23.260;2023-07-24T10:31:08;21.60;;;7.05;;
20008;SDS011;10165;42.662;23.260;2023-07-24T10:33:46;17.85;;;6.70;;
20008;SDS011;10165;42.662;23.260;2023-07-24T10:36:17;11.88;;;6.97;;
20008;SDS011;10165;42.662;23.260;2023-07-24T10:38:46;14.98;;;6.40;;
20008;SDS011;10165;42.662;23.260;2023-07-24T10:41:18;12.07;;;7.10;;
20008;SDS011;10165;42.662;23.260;2023-07-24T10:43:49;11.23;;;6.18;;
20008;SDS011;10165;42.662;23.260;2023-07-24T10:46:18;14.48;;;5.95;;
20008;SDS011;10165;42.662;23.260;2023-07-24T10:48:54;14.02;;;6.03;;
20008;SDS011;10165;42.662;23.260;2023-07-24T10:51:28;10.20;;;5.82;;
20008;SDS011;10165;42.662;23.260;2023-07-24T10:53:56;17.60;;;6.03;;
20008;SDS011;10165;42.662;23.260;2023-07-24T10:56:23;13.77;;;6.25;;
20008;SDS011;10165;42.662;23.260;2023-07-24T10:58:52;14.43;;;5.57;;
20008;SDS011;10165;42.662;23.260;2023-07-24T11:01:18;9.68;;;5.57;;
20008;SDS011;10165;42.662;23.260;2023-07-24T11:03:45;9.90;;;5.88;;
20008;SDS011;10165;42.662;23.260;2023-07-24T11:06:19;11.25;;;5.57;;
20008;SDS011;10165;42.662;23.260;2023-07-24T11:08:52;12.68;;;5.68;;
20008;SDS011;10165;42.662;23.260;2023-07-24T11:11:31;14.93;;;5.63;;
20008;SDS011;10165;42.662;23.260;2023-07-24T11:14:01;14.45;;;5.72;;
20008;SDS011;10165;42.662;23.260;2023-07-24T11:16:31;12.10;;;5.93;;
20008;SDS011;10165;42.662;23.260;2023-07-24T11:19:00;10.05;;;5.43;;
20008;SDS011;10165;42.662;23.260;2023-07-24T11:21:27;12.65;;;6.05;;
20008;SDS011;10165;42.662;23.260;2023-07-24T11:23:56;13.90;;;6.53;;
20008;SDS011;10165;42.662;23.260;2023-07-24T11:26:23;10.93;;;5.63;;
20008;SDS011;10165;42.662;23.260;2023-07-24T11:28:52;21.40;;;6.43;;
20008;SDS011;10165;42.662;23.260;2023-07-24T11:31:19;13.30;;;6.28;;
20008;SDS011;10165;42.662;23.260;2023-07-24T11:33:50;11.95;;;6.28;;
20008;SDS011;10165;42.662;23.260;2023-07-24T11:36:18;13.13;;;5.93;;
20008;SDS011;10165;42.662;23.260;2023-07-24T11:38:45;10.32;;;6.07;;
20008;SDS011;10165;42.662;23.260;2023-07-24T11:41:13;11.40;;;6.55;;
20008;SDS011;10165;42.662;23.260;2023-07-24T11:43:47;9.98;;;5.72;;
20008;SDS011;10165;42.662;23.260;2023-07-24T11:49:05;11.43;;;5.28;;
20008;SDS011;10165;42.662;23.260;2023-07-24T11:51:32;12.63;;;5.93;;
20008;SDS011;10165;42.662;23.260;2023-07-24T11:54:07;13.70;;;6.07;;
20008;SDS011;10165;42.662;23.260;2023-07-24T11:56:34;12.15;;;5.93;;
20008;SDS011;10165;42.662;23.260;2023-07-24T11:59:14;10.27;;;6.20;;
20008;SDS011;10165;42.662;23.260;2023-07-24T12:01:48;11.30;;;6.18;;
20008;SDS011;10165;42.662;23.260;2023-07-24T12:04:15;10.05;;;6.07;;
20008;SDS011;10165;42.662;23.260;2023-07-24T12:06:45;9.95;;;6.00;;
20008;SDS011;10165;42.662;23.260;2023-07-24T12:09:12;12.10;;;5.78;;
20008;SDS011;10165;42.662;23.260;2023-07-24T12:11:40;11.05;;;6.03;;
20008;SDS011;10165;42.662;23.260;2023-07-24T12:14:12;12.50;;;6.30;;
20008;SDS011;10165;42.662;23.260;2023-07-24T12:16:39;11.00;;;5.47;;
20008;SDS011;10165;42.662;23.260;2023-07-24T12:19:06;10.82;;;6.20;;
20008;SDS011;10165;42.662;23.260;2023-07-24T12:21:36;10.95;;;6.40;;
20008;SDS011;10165;42.662;23.260;2023-07-24T12:24:03;12.80;;;6.55;;
20008;SDS011;10165;42.662;23.260;2023-07-24T12:26:30;12.18;;;6.63;;
20008;SDS011;10165;42.662;23.260;2023-07-24T12:28:57;13.45;;;6.40;;
20008;SDS011;10165;42.662;23.260;2023-07-24T12:31:25;10.35;;;6.35;;
20008;SDS011;10165;42.662;23.260;2023-07-24T12:33:52;14.98;;;7.03;;
20008;SDS011;10165;42.662;23.260;2023-07-24T12:36:19;13.45;;;6.30;;
20008;SDS011;10165;42.662;23.260;2023-07-24T12:38:45;13.20;;;6.50;;
20008;SDS011;10165;42.662;23.260;2023-07-24T12:41:14;11.55;;;6.45;;
20008;SDS011;10165;42.662;23.260;2023-07-24T12:43:42;11.55;;;6.18;;
20008;SDS011;10165;42.662;23.260;2023-07-24T12:46:09;9.68;;;5.32;;
20008;SDS011;10165;42.662;23.260;2023-07-24T12:48:36;11.13;;;6.47;;
20008;SDS011;10165;42.662;23.260;2023-07-24T12:51:03;9.25;;;6.00;;
20008;SDS011;10165;42.662;23.260;2023-07-24T12:53:29;11.73;;;6.03;;
20008;SDS011;10165;42.662;23.260;2023-07-24T12:56:12;11.05;;;6.20;;
20008;SDS011;10165;42.662;23.260;2023-07-24T12:58:39;10.65;;;6.10;;
20008;SDS011;10165;42.662;23.260;2023-07-24T13:01:05;13.60;;;6.47;;
20008;SDS011;10165;42.662;23.260;2023-07-24T13:03:34;9.57;;;6.05;;
20008;SDS011;10165;42.662;23.260;2023-07-24T13:06:01;12.25;;;7.13;;
20008;SDS011;10165;42.662;23.260;2023-07-24T13:08:28;12.13;;;6.00;;
20008;SDS011;10165;42.662;23.260;2023-07-24T13:10:55;11.95;;;7.25;;
20008;SDS011;10165;42.662;23.260;2023-07-24T13:13:22;8.93;;;5.90;;
20008;SDS011;10165;42.662;23.260;2023-07-24T13:15:48;11.52;;;7.10;;
20008;SDS011;10165;42.662;23.260;2023-07-24T13:18:16;10.60;;;6.38;;
20008;SDS011;10165;42.662;23.260;2023-07-24T13:20:54;10.02;;;6.60;;
20008;SDS011;10165;42.662;23.260;2023-07-24T13:23:21;12.52;;;7.00;;
20008;SDS011;10165;42.662;23.260;2023-07-24T13:25:48;11.65;;;6.57;;
20008;SDS011;10165;42.662;23.260;2023-07-24T13:28:16;17.27;;;7.18;;
20008;SDS011;10165;42.662;23.260;2023-07-24T13:30:43;10.75;;;6.38;;
20008;SDS011;10165;42.662;23.260;2023-07-24T13:33:10;11.50;;;7.07;;
20008;SDS011;10165;42.662;23.260;2023-07-24T13:35:37;9.95;;;6.53;;
20008;SDS011;10165;42.662;23.260;2023-07-24T13:38:04;11.00;;;6.45;;
20008;SDS011;10165;42.662;23.260;2023-07-24T13:40:30;10.10;;;6.72;;
20008;SDS011;10165;42.662;23.260;2023-07-24T13:43:00;11.55;;;7.18;;
20008;SDS011;10165;42.662;23.260;2023-07-24T13:45:27;11.10;;;6.15;;
20008;SDS011;10165;42.662;23.260;2023-07-24T13:47:56;13.85;;;7.00;;
20008;SDS011;10165;42.662;23.260;2023-07-24T13:50:24;11.13;;;6.38;;
20008;SDS011;10165;42.662;23.260;2023-07-24T13:52:51;11.40;;;6.65;;
20008;SDS011;10165;42.662;23.260;2023-07-24T13:55:18;9.65;;;6.78;;
20008;SDS011;10165;42.662;23.260;2023-07-24T13:57:44;11.65;;;6.72;;
20008;SDS011;10165;42.662;23.260;2023-07-24T14:00:11;12.68;;;6.82;;
20008;SDS011;10165;42.662;23.260;2023-07-24T14:02:38;13.77;;;7.10;;
20008;SDS011;10165;42.662;23.260;2023-07-24T14:05:05;12.93;;;7.15;;
20008;SDS011;10165;42.662;23.260;2023-07-24T14:07:33;9.05;;;6.78;;
20008;SDS011;10165;42.662;23.260;2023-07-24T14:09:59;12.60;;;7.25;;
20008;SDS011;10165;42.662;23.260;2023-07-24T14:12:26;10.15;;;6.65;;
20008;SDS011;10165;42.662;23.260;2023-07-24T14:14:53;11.57;;;7.20;;
20008;SDS011;10165;42.662;23.260;2023-07-24T14:17:19;13.13;;;7.45;;
20008;SDS011;10165;42.662;23.260;2023-07-24T14:19:46;13.77;;;7.50;;
20008;SDS011;10165;42.662;23.260;2023-07-24T14:22:13;12.10;;;7.40;;
20008;SDS011;10165;42.662;23.260;2023-07-24T14:24:40;12.05;;;7.25;;
20008;SDS011;10165;42.662;23.260;2023-07-24T14:27:07;12.52;;;7.82;;
20008;SDS011;10165;42.662;23.260;2023-07-24T14:29:34;14.48;;;7.07;;
20008;SDS011;10165;42.662;23.260;2023-07-24T14:32:00;13.57;;;7.38;;
20008;SDS011;10165;42.662;23.260;2023-07-24T14:34:28;11.20;;;7.10;;